GORO2: Illinois River, Gore, OK

                                SHEF ID:       GORO2     Illinois River near Gore, OK
STATION TYPE:
Regulating: Stage = 17.00, Flow = 14873

PRECIP PRECIP(A) STAGE STAGE(2) RIV-FLOW WTR-TEMP DIS-OXY BAT-LOAD
in in ft ft cfs F mg/l volt
Ccp-Rev Ccp-Rev Ccp-Rev Ccp-Rev Ccp-Rev Ccp-Rev Ccp-Rev Ccp-Rev
(America/Chicago)
04/27 00:00 0.00 ---- 7.97 7.96 667 54.97 7.91 12.76
04/27 01:00 0.00 ---- 7.24 7.22 268 55.62 7.81 12.74
04/27 02:00 0.00 ---- 6.98 7.04 177 56.03 7.60 12.73
04/27 03:00 0.00 ---- 6.84 7.05 137 56.39 7.51 12.72
04/27 04:00 0.00 ---- 6.75 7.04 115 56.66 7.35 12.70
04/27 05:00 0.00 ---- 6.70 7.04 104 56.91 7.10 12.68
04/27 06:00 0.00 ---- 6.66 7.04 96 57.25 7.00 12.67
04/27 07:00 0.00 ---- 10.03 9.68 2493 56.66 7.42 12.65
04/27 08:00 0.00 ---- 11.11 11.11 3748 53.49 7.96 12.66
04/27 09:00 0.00 ---- 11.22 11.22 3885 53.20 8.24 12.77
04/27 10:00 0.00 ---- 9.48 9.56 1917 54.10 8.62 12.98
04/27 11:00 0.00 ---- 7.79 7.78 553 55.42 9.57 13.11
04/27 12:00 0.00 ---- 7.19 7.17 249 57.15 10.64 13.16
04/27 13:00 0.00 ---- 6.98 7.04 177 59.07 11.60 13.11
04/27 14:00 0.00 ---- 6.87 7.04 145 60.75 12.30 13.06
04/27 15:00 0.00 ---- 8.71 8.44 1217 62.10 13.11 13.01
04/27 16:00 0.00 ---- 10.74 10.71 3302 55.24 9.46 12.96
04/27 17:00 0.00 ---- 11.20 11.20 3860 53.42 8.46 13.01
04/27 18:00 0.00 ---- 11.26 11.26 3936 53.19 8.32 12.99
04/27 19:00 0.00 ---- 11.28 11.28 3961 52.97 8.11 12.93
04/27 20:00 0.00 ---- 11.28 11.27 3961 52.81 8.06 12.84
04/27 21:00 0.00 ---- 11.27 11.27 3948 52.75 7.96 12.78
04/27 22:00 0.00 ---- 11.27 11.27 3948 52.59 7.93 12.77
04/27 23:00 0.00 ---- 11.29 11.28 3974 52.57 7.94 12.76
Data processed at Tue 28Apr2026 04:35 GMT

NOTICE: If you are parsing this page

Please convert to using our Data API. Starting early 2026 we will be migrating to: https://water.usace.army.mil with modern pages rendered in JavaScript. When this migration completes you will no longer be able to scrape this page! CWMSDataAPI (CDA)

Timeseries IDs (TSIDs)

TSIDs used from left to right in the data table
GORE.Precip-Inc.Total.1Hour.1Hour.Ccp-Rev
GORE.Precip-Inc Alt.Total.1Hour.1Hour.Ccp-Rev
GORE.Stage.Inst.1Hour.0.Ccp-Rev
GORE.Stage-Alt.Inst.1Hour.0.Ccp-Rev
GORE.Flow.Inst.1Hour.0.Ccp-Rev
GORE.Temp-Water.Inst.1Hour.0.Ccp-Rev
GORE.Conc-DO.Inst.1Hour.0.Ccp-Rev
GORE.Volt-Battery Load.Inst.1Hour.0.Ccp-Rev

                            

All information presented herein is the property of the government of the United States of America and may be revised or deleted at any time without prior notice. Dissemination of this information without the expressed written consent of the Public Affairs Office, Tulsa District U.S. Army Corps of Engineers is strictly prohibited. These data are gathered electronically and, as presented, have NOT undergone any form of quality control. These data are NOT guaranteed to be valid or correct.